Aviation Digital Data Service (ADDS)

Output produced by METARs form (0641 UTC 27 March 2017)
found at http://www.aviationweather.gov/adds/metars/
 
TAF SMJP 270400Z 2706/2806 03004KT 9999 FEW008 SCT035 TX32/2718Z TN22/2710Z 
     TEMPO 2709/2711 3500BR 
     FM271200 06010KT 9999 FEW018CB SCT025 
     TEMPO 2716/2720 5000 SHRA 
     FM280100 05004KT CAVOK